createdAt,value
2023-04-25T00:01:07.741Z,8.50
2023-04-25T00:03:37.751Z,8.50
2023-04-25T00:06:06.232Z,8.40
2023-04-25T00:08:34.792Z,8.40
2023-04-25T00:11:03.080Z,8.40
2023-04-25T00:13:31.393Z,8.40
2023-04-25T00:15:59.599Z,8.40
2023-04-25T00:18:29.748Z,8.40
2023-04-25T00:20:59.458Z,8.40
2023-04-25T00:23:27.651Z,8.30
2023-04-25T00:25:55.827Z,8.30
2023-04-25T00:28:23.978Z,8.30
2023-04-25T00:30:52.409Z,8.30
2023-04-25T00:33:20.765Z,8.40
2023-04-25T00:35:48.939Z,8.30
2023-04-25T00:38:18.585Z,8.30
2023-04-25T00:40:46.758Z,8.30
2023-04-25T00:43:14.995Z,8.30
2023-04-25T00:45:45.692Z,8.30
2023-04-25T00:48:16.313Z,8.40
2023-04-25T00:50:50.661Z,8.40
2023-04-25T00:53:20.230Z,8.40
2023-04-25T00:55:48.582Z,8.40
2023-04-25T00:58:16.860Z,8.40
2023-04-25T01:00:46.350Z,8.40
2023-04-25T01:03:15.013Z,8.40
2023-04-25T01:05:43.614Z,8.30
2023-04-25T01:08:12.210Z,8.20
2023-04-25T01:10:41.887Z,8.20
2023-04-25T01:13:10.414Z,8.30
2023-04-25T01:15:38.869Z,8.30
2023-04-25T01:18:08.049Z,8.30
2023-04-25T01:20:36.406Z,8.30
2023-04-25T01:23:06.193Z,8.20
2023-04-25T01:25:34.432Z,8.20
2023-04-25T01:28:02.722Z,8.10
2023-04-25T01:30:31.668Z,8.20
2023-04-25T01:33:01.263Z,8.20
2023-04-25T01:35:29.531Z,8.20
2023-04-25T01:37:57.838Z,8.20
2023-04-25T01:40:28.910Z,8.20
2023-04-25T01:42:57.304Z,8.20
2023-04-25T01:45:25.596Z,8.10
2023-04-25T01:47:53.898Z,8.10
2023-04-25T01:50:22.438Z,8.10
2023-04-25T01:52:51.078Z,8.10
2023-04-25T01:55:19.540Z,8.10
2023-04-25T01:57:49.261Z,8.20
2023-04-25T02:00:17.850Z,8.20
2023-04-25T02:02:46.231Z,8.20
2023-04-25T02:05:14.505Z,8.20
2023-04-25T02:07:42.806Z,8.20
2023-04-25T02:10:12.083Z,8.30
2023-04-25T02:12:40.333Z,8.20
2023-04-25T02:15:10.919Z,8.20
2023-04-25T02:17:40.278Z,8.20
2023-04-25T02:20:09.492Z,8.30
2023-04-25T02:22:37.799Z,8.30
2023-04-25T02:25:06.809Z,8.20
2023-04-25T02:27:35.033Z,8.30
2023-04-25T02:30:04.038Z,8.30
2023-04-25T02:32:35.394Z,8.30
2023-04-25T02:35:04.970Z,8.20
2023-04-25T02:37:33.568Z,8.20
2023-04-25T02:40:01.958Z,8.20
2023-04-25T02:42:30.152Z,8.20
2023-04-25T02:44:58.383Z,8.20
2023-04-25T02:47:26.825Z,8.20
2023-04-25T02:49:56.603Z,8.10
2023-04-25T02:52:24.829Z,8.10
2023-04-25T02:54:53.078Z,8.10
2023-04-25T02:57:21.288Z,8.10
2023-04-25T02:59:49.567Z,8.00
2023-04-25T03:02:17.846Z,8.00
2023-04-25T03:04:46.186Z,8.10
2023-04-25T03:07:15.844Z,8.10
2023-04-25T03:09:43.992Z,8.10
2023-04-25T03:12:12.199Z,8.10
2023-04-25T03:14:40.406Z,8.20
2023-04-25T03:17:08.589Z,8.20
2023-04-25T03:19:36.753Z,8.20
2023-04-25T03:22:04.933Z,8.40
2023-04-25T03:24:34.472Z,8.20
2023-04-25T03:27:02.853Z,8.30
2023-04-25T03:29:31.096Z,8.30
2023-04-25T03:31:59.343Z,8.30
2023-04-25T03:34:29.054Z,8.20
2023-04-25T03:36:57.300Z,8.20
2023-04-25T03:39:25.701Z,8.20
2023-04-25T03:41:55.296Z,8.30
2023-04-25T03:44:23.527Z,8.30
2023-04-25T03:46:51.750Z,8.30
2023-04-25T03:49:20.091Z,8.30
2023-04-25T03:51:48.355Z,8.20
2023-04-25T03:54:16.630Z,8.20
2023-04-25T03:56:44.852Z,8.20
2023-04-25T03:59:14.580Z,8.30
2023-04-25T04:01:42.828Z,8.30
2023-04-25T04:04:11.317Z,8.30
2023-04-25T04:06:39.832Z,8.20
2023-04-25T04:09:10.976Z,8.20
2023-04-25T04:11:39.509Z,8.20
2023-04-25T04:14:07.806Z,8.20
2023-04-25T04:16:37.479Z,8.20
2023-04-25T04:19:06.351Z,8.30
2023-04-25T04:21:34.569Z,8.30
2023-04-25T04:24:02.823Z,8.30
2023-04-25T04:26:33.101Z,8.30
2023-04-25T04:29:01.348Z,8.30
2023-04-25T04:31:29.584Z,8.40
2023-04-25T04:33:59.466Z,8.30
2023-04-25T04:36:27.771Z,8.30
2023-04-25T04:38:57.478Z,8.40
2023-04-25T04:41:25.747Z,8.40
2023-04-25T04:43:54.312Z,8.40
2023-04-25T04:46:22.723Z,8.40
2023-04-25T04:48:51.092Z,8.30
2023-04-25T04:51:21.760Z,8.30
2023-04-25T04:53:50.293Z,8.30
2023-04-25T04:56:19.185Z,8.30
2023-04-25T04:58:50.119Z,8.30
2023-04-25T05:01:18.461Z,8.30
2023-04-25T05:03:46.970Z,8.30
2023-04-25T05:06:15.300Z,8.40
2023-04-25T05:08:44.943Z,8.50
2023-04-25T05:11:13.418Z,8.50
2023-04-25T05:13:41.708Z,8.50
2023-04-25T05:16:10.065Z,8.60
2023-04-25T05:18:38.407Z,8.50
2023-04-25T05:21:06.959Z,8.50
2023-04-25T05:23:35.784Z,8.50
2023-04-25T05:26:05.608Z,8.50
2023-04-25T05:28:33.860Z,8.50
2023-04-25T05:31:02.203Z,8.60
2023-04-25T05:33:30.407Z,8.80
2023-04-25T05:35:58.653Z,8.80
2023-04-25T05:38:27.005Z,8.90
2023-04-25T05:40:55.295Z,9.00
2023-04-25T05:43:24.967Z,9.10
2023-04-25T05:45:53.251Z,9.20
2023-04-25T05:48:21.429Z,9.20
2023-04-25T05:50:49.711Z,9.20
2023-04-25T05:53:18.343Z,9.30
2023-04-25T05:55:46.654Z,9.40
2023-04-25T05:58:15.021Z,9.40
2023-04-25T06:00:44.599Z,9.40
2023-04-25T06:03:13.364Z,9.50
2023-04-25T06:05:41.717Z,9.50
2023-04-25T06:08:09.927Z,9.60
2023-04-25T06:10:38.410Z,9.70
2023-04-25T06:13:07.367Z,9.80
2023-04-25T06:15:35.997Z,9.90
2023-04-25T06:18:05.758Z,9.90
2023-04-25T06:20:33.905Z,10.00
2023-04-25T06:23:02.065Z,10.30
2023-04-25T06:25:30.233Z,10.70
2023-04-25T06:27:58.388Z,11.00
2023-04-25T06:30:26.994Z,11.70
2023-04-25T06:32:55.273Z,12.40
2023-04-25T06:35:24.864Z,13.00
2023-04-25T06:37:53.003Z,13.80
2023-04-25T06:40:21.242Z,14.90
2023-04-25T06:42:49.393Z,15.80
2023-04-25T06:45:17.682Z,16.20
2023-04-25T06:47:45.983Z,16.40
2023-04-25T06:50:14.226Z,16.00
2023-04-25T06:52:43.757Z,15.70
2023-04-25T06:55:12.032Z,15.20
2023-04-25T06:57:40.212Z,14.60
2023-04-25T07:00:10.671Z,14.00
2023-04-25T07:02:39.007Z,13.80
2023-04-25T07:05:07.649Z,13.80
2023-04-25T07:07:35.826Z,13.80
2023-04-25T07:10:06.431Z,14.30
2023-04-25T07:12:34.671Z,14.40
2023-04-25T07:15:06.874Z,14.20
2023-04-25T07:17:35.996Z,13.70
2023-04-25T07:20:04.902Z,13.20
2023-04-25T07:22:33.087Z,13.00
2023-04-25T07:25:01.244Z,13.10
2023-04-25T07:27:30.789Z,13.50
2023-04-25T07:29:59.171Z,13.60
2023-04-25T07:32:27.822Z,13.40
2023-04-25T07:34:56.062Z,13.60
2023-04-25T07:37:25.175Z,13.60
2023-04-25T07:39:53.361Z,13.50
2023-04-25T07:42:22.247Z,13.40
2023-04-25T07:44:52.746Z,13.40
2023-04-25T07:47:21.294Z,13.50
2023-04-25T07:49:49.557Z,13.40
2023-04-25T07:52:17.841Z,13.10
2023-04-25T07:54:46.345Z,12.80
2023-04-25T07:57:15.167Z,12.60
2023-04-25T07:59:43.333Z,12.40
2023-04-25T08:02:12.926Z,12.00
2023-04-25T08:04:41.651Z,11.60
2023-04-25T08:07:10.661Z,11.10
2023-04-25T08:09:38.863Z,10.70
2023-04-25T08:12:07.525Z,10.00
2023-04-25T08:14:38.335Z,9.30
2023-04-25T08:17:06.823Z,8.80
2023-04-25T08:19:36.490Z,8.50
2023-04-25T08:22:04.717Z,8.30
2023-04-25T08:24:32.898Z,8.10
2023-04-25T08:27:01.707Z,8.00
2023-04-25T08:29:29.862Z,7.90
2023-04-25T08:31:58.056Z,7.90
2023-04-25T08:34:26.561Z,8.00
2023-04-25T08:36:56.157Z,8.10
2023-04-25T08:39:24.317Z,8.10
2023-04-25T08:41:53.738Z,8.10
2023-04-25T08:44:22.992Z,8.20
2023-04-25T08:46:51.990Z,8.30
2023-04-25T08:49:20.785Z,8.40
2023-04-25T08:51:50.869Z,8.50
2023-04-25T08:54:35.175Z,8.50
2023-04-25T08:57:06.355Z,8.50
2023-04-25T08:59:36.574Z,8.50
2023-04-25T09:02:05.814Z,8.60
2023-04-25T09:04:34.217Z,8.70
2023-04-25T09:07:02.453Z,8.70
2023-04-25T09:09:32.308Z,8.70
2023-04-25T09:12:02.665Z,8.60
2023-04-25T09:14:30.977Z,8.60
2023-04-25T09:17:01.449Z,8.60
2023-04-25T09:22:03.701Z,8.90
2023-04-25T09:24:35.678Z,8.90
2023-04-25T09:27:06.787Z,8.90
2023-04-25T09:29:36.106Z,9.10
2023-04-25T09:32:28.328Z,9.00
2023-04-25T09:34:57.835Z,9.00
2023-04-25T09:37:27.206Z,9.00
2023-04-25T09:39:58.406Z,9.00
2023-04-25T09:42:27.767Z,9.00
2023-04-25T09:44:57.765Z,9.00
2023-04-25T09:47:27.797Z,9.00
2023-04-25T09:49:57.196Z,9.10
2023-04-25T09:52:26.650Z,9.10
2023-04-25T09:54:56.891Z,9.00
2023-04-25T09:57:26.996Z,9.10
2023-04-25T09:59:57.393Z,8.90
2023-04-25T10:02:27.063Z,8.90
2023-04-25T10:04:57.204Z,9.00
2023-04-25T10:07:29.276Z,9.10
2023-04-25T10:10:03.061Z,9.10
2023-04-25T10:12:32.075Z,9.10
2023-04-25T10:15:01.434Z,9.20
2023-04-25T10:17:30.062Z,9.20
2023-04-25T10:19:58.611Z,9.10
2023-04-25T10:22:33.143Z,9.10
2023-04-25T10:25:05.010Z,9.10
2023-04-25T10:27:33.775Z,9.10
2023-04-25T10:30:07.279Z,9.20
2023-04-25T10:32:35.758Z,9.30
2023-04-25T10:35:14.974Z,9.50
2023-04-25T10:38:05.800Z,9.70
2023-04-25T10:40:35.781Z,9.90
2023-04-25T10:43:38.637Z,10.00
2023-04-25T10:46:19.621Z,10.10
2023-04-25T10:48:50.307Z,10.00
2023-04-25T10:51:24.040Z,9.90
2023-04-25T10:54:02.838Z,9.70
2023-04-25T10:56:33.537Z,9.50
2023-04-25T10:59:10.977Z,9.40
2023-04-25T11:01:41.142Z,9.50
2023-04-25T11:04:21.436Z,9.80
2023-04-25T11:07:07.454Z,10.30
2023-04-25T11:09:36.824Z,10.90
2023-04-25T11:12:09.209Z,11.60
2023-04-25T11:14:38.072Z,12.80
2023-04-25T11:17:06.858Z,14.00
2023-04-25T11:19:35.134Z,14.50
2023-04-25T11:22:04.492Z,14.60
2023-04-25T11:24:33.730Z,14.60
2023-04-25T11:27:03.811Z,14.60
2023-04-25T11:29:35.343Z,14.00
2023-04-25T11:32:03.884Z,13.40
2023-04-25T11:34:33.973Z,12.70
2023-04-25T11:37:03.468Z,12.50
2023-04-25T11:39:32.325Z,12.30
2023-04-25T11:42:02.325Z,11.80
2023-04-25T11:44:33.394Z,12.10
2023-04-25T11:47:01.555Z,12.80
2023-04-25T11:49:33.453Z,13.00
2023-04-25T11:52:01.659Z,13.50
2023-04-25T11:54:29.824Z,14.10
2023-04-25T11:56:58.327Z,14.60
2023-04-25T11:59:27.840Z,14.90
2023-04-25T12:01:58.832Z,15.10
2023-04-25T12:04:27.732Z,14.90
2023-04-25T12:06:57.462Z,15.00
2023-04-25T12:09:31.428Z,14.90
2023-04-25T12:12:03.880Z,14.40
2023-04-25T12:14:34.513Z,13.90
2023-04-25T12:17:06.294Z,13.40
2023-04-25T12:19:36.163Z,13.10
2023-04-25T12:22:05.170Z,12.60
2023-04-25T12:24:39.125Z,12.20
2023-04-25T12:27:09.412Z,11.70
2023-04-25T12:29:49.375Z,11.30
2023-04-25T12:32:19.685Z,10.90
2023-04-25T12:34:48.162Z,10.70
2023-04-25T12:37:16.751Z,10.40
2023-04-25T12:39:44.980Z,10.20
2023-04-25T12:42:13.847Z,10.20
2023-04-25T12:44:42.639Z,10.20
2023-04-25T12:47:11.096Z,10.10
2023-04-25T12:49:40.742Z,10.00
2023-04-25T12:52:08.927Z,9.60
2023-04-25T12:54:37.164Z,9.20
2023-04-25T12:57:05.849Z,8.80
2023-04-25T12:59:34.057Z,8.50
2023-04-25T13:02:02.245Z,8.20
2023-04-25T13:04:30.919Z,8.20
2023-04-25T13:07:01.039Z,8.00
2023-04-25T13:09:29.293Z,8.00
2023-04-25T13:11:59.361Z,8.10
2023-04-25T13:14:27.742Z,8.30
2023-04-25T13:16:56.338Z,8.50
2023-04-25T13:19:24.617Z,8.90
2023-04-25T13:21:52.823Z,9.10
2023-04-25T13:24:22.443Z,9.50
2023-04-25T13:26:50.647Z,10.30
2023-04-25T13:29:18.802Z,11.00
2023-04-25T13:31:47.110Z,12.10
2023-04-25T13:34:15.804Z,13.40
2023-04-25T13:36:44.352Z,14.80
2023-04-25T13:39:13.265Z,15.90
2023-04-25T13:41:42.855Z,16.70
2023-04-25T13:44:11.501Z,17.20
2023-04-25T13:46:47.083Z,17.00
2023-04-25T13:49:16.558Z,16.10
2023-04-25T13:51:44.916Z,15.30
2023-04-25T13:54:13.286Z,15.00
2023-04-25T13:56:43.698Z,14.40
2023-04-25T13:59:12.299Z,13.90
2023-04-25T14:01:40.633Z,13.40
2023-04-25T14:04:08.890Z,12.40
2023-04-25T14:06:37.759Z,11.60
2023-04-25T14:09:07.786Z,10.80
2023-04-25T14:11:36.241Z,10.40
2023-04-25T14:14:06.483Z,10.00
2023-04-25T14:16:36.534Z,9.80
2023-04-25T14:19:04.798Z,9.50
2023-04-25T14:21:34.593Z,9.50
2023-04-25T14:24:02.841Z,9.40
2023-04-25T14:26:31.249Z,9.30
2023-04-25T14:28:59.469Z,9.20
2023-04-25T14:31:29.295Z,8.90
2023-04-25T14:33:59.330Z,8.80
2023-04-25T14:36:28.532Z,8.80
2023-04-25T14:38:57.053Z,8.80
2023-04-25T14:41:26.000Z,9.00
2023-04-25T14:43:54.928Z,9.50
2023-04-25T14:46:24.392Z,10.00
2023-04-25T14:48:54.462Z,10.00
2023-04-25T14:51:22.697Z,10.20
2023-04-25T14:53:51.655Z,10.30
2023-04-25T14:56:20.254Z,10.40
2023-04-25T14:58:48.397Z,10.20
2023-04-25T15:01:16.913Z,10.10
2023-04-25T15:03:45.599Z,10.00
2023-04-25T15:06:15.490Z,9.80
2023-04-25T15:08:43.689Z,9.70
2023-04-25T15:11:13.132Z,9.50
2023-04-25T15:13:41.377Z,9.40
2023-04-25T15:16:09.618Z,9.50
2023-04-25T15:18:37.912Z,9.70
2023-04-25T15:21:06.588Z,9.70
2023-04-25T15:23:36.197Z,9.90
2023-04-25T15:26:04.413Z,10.00
2023-04-25T15:28:32.573Z,10.10
2023-04-25T15:31:00.769Z,10.30
2023-04-25T15:33:28.971Z,10.50
2023-04-25T15:35:58.703Z,10.60
2023-04-25T15:38:26.864Z,10.60
2023-04-25T15:40:56.492Z,10.70
2023-04-25T15:43:24.764Z,10.70
2023-04-25T15:45:53.030Z,10.70
2023-04-25T15:48:21.316Z,10.70
2023-04-25T15:50:49.677Z,10.70
2023-04-25T15:53:17.836Z,10.70
2023-04-25T15:55:46.023Z,10.80
2023-04-25T15:58:15.561Z,10.70
2023-04-25T16:00:43.786Z,10.70
2023-04-25T16:03:12.152Z,10.60
2023-04-25T16:05:41.028Z,10.50
2023-04-25T16:08:09.246Z,10.60
2023-04-25T16:10:38.425Z,10.60
2023-04-25T16:13:06.623Z,10.60
2023-04-25T16:15:36.336Z,10.50
2023-04-25T16:18:04.824Z,10.30
2023-04-25T16:20:33.186Z,10.20
2023-04-25T16:23:01.546Z,10.00
2023-04-25T16:25:29.743Z,9.90
2023-04-25T16:27:57.953Z,9.80
2023-04-25T16:30:26.411Z,9.80
2023-04-25T16:32:57.337Z,9.80
2023-04-25T16:35:26.237Z,9.80
2023-04-25T16:37:54.811Z,9.80
2023-04-25T16:40:23.166Z,9.80
2023-04-25T16:42:51.312Z,9.80
2023-04-25T16:45:20.390Z,9.80
2023-04-25T16:47:48.660Z,9.80
2023-04-25T16:50:20.199Z,9.70
2023-04-25T16:52:48.373Z,9.70
2023-04-25T16:55:16.541Z,9.70
2023-04-25T16:57:44.818Z,9.70
2023-04-25T17:00:14.127Z,9.80
2023-04-25T17:02:42.504Z,9.70
2023-04-25T17:05:10.883Z,9.70
2023-04-25T17:07:40.493Z,9.60
2023-04-25T17:10:09.530Z,9.50
2023-04-25T17:12:37.716Z,9.40
2023-04-25T17:15:07.027Z,9.20
2023-04-25T17:17:35.209Z,9.00
2023-04-25T17:20:06.029Z,8.90
2023-04-25T17:22:35.250Z,8.70
2023-04-25T17:25:05.427Z,8.60
2023-04-25T17:27:33.671Z,8.50
2023-04-25T17:30:03.638Z,8.40
2023-04-25T17:32:32.037Z,8.40
2023-04-25T17:35:00.369Z,8.30
2023-04-25T17:37:28.903Z,8.20
2023-04-25T17:39:57.530Z,8.10
2023-04-25T17:42:28.142Z,8.00
2023-04-25T17:44:56.404Z,8.00
2023-04-25T17:47:24.820Z,7.80
2023-04-25T17:49:53.096Z,7.70
2023-04-25T17:52:22.026Z,7.50
2023-04-25T17:54:50.160Z,7.40
2023-04-25T17:57:18.508Z,7.30
2023-04-25T17:59:48.075Z,7.20
2023-04-25T18:02:17.247Z,7.20
2023-04-25T18:04:45.714Z,7.20
2023-04-25T18:07:13.943Z,7.20
2023-04-25T18:09:42.117Z,7.20
2023-04-25T18:12:10.293Z,7.20
2023-04-25T18:14:38.501Z,7.20
2023-04-25T18:17:08.993Z,7.20
2023-04-25T18:19:37.252Z,7.20
2023-04-25T18:22:05.779Z,7.20
2023-04-25T18:24:34.044Z,7.20
2023-04-25T18:27:05.871Z,7.20
2023-04-25T18:29:34.361Z,7.20
2023-04-25T18:32:05.054Z,7.10
2023-04-25T18:34:35.429Z,7.00
2023-04-25T18:37:03.762Z,7.00
2023-04-25T18:39:31.959Z,6.90
2023-04-25T18:42:05.575Z,6.80
2023-04-25T18:44:39.446Z,6.80
2023-04-25T18:47:07.907Z,6.80
2023-04-25T18:49:38.635Z,6.80
2023-04-25T18:52:08.621Z,6.80
2023-04-25T18:54:37.111Z,6.80
2023-04-25T18:57:06.294Z,6.80
2023-04-25T18:59:34.843Z,6.80
2023-04-25T19:02:04.477Z,6.70
2023-04-25T19:04:32.830Z,6.70
2023-04-25T19:07:02.626Z,6.70
2023-04-25T19:09:30.842Z,6.80
2023-04-25T19:11:59.094Z,6.80
2023-04-25T19:14:28.521Z,6.80
2023-04-25T19:16:59.231Z,6.80
2023-04-25T19:19:28.183Z,6.80
2023-04-25T19:21:56.472Z,6.80
2023-04-25T19:24:27.325Z,6.70
2023-04-25T19:26:55.507Z,6.80
2023-04-25T19:29:23.740Z,6.80
2023-04-25T19:31:51.990Z,6.80
2023-04-25T19:34:20.286Z,6.70
2023-04-25T19:36:48.954Z,6.70
2023-04-25T19:39:17.156Z,6.70
2023-04-25T19:41:46.738Z,6.60
2023-04-25T19:44:14.926Z,6.60
2023-04-25T19:46:45.948Z,6.70
2023-04-25T19:49:14.286Z,6.70
2023-04-25T19:51:42.617Z,6.50
2023-04-25T19:54:10.787Z,6.60
2023-04-25T19:56:39.383Z,6.60
2023-04-25T19:59:09.122Z,6.60
2023-04-25T20:01:37.371Z,6.70
2023-04-25T20:04:06.052Z,6.70
2023-04-25T20:06:34.264Z,6.60
2023-04-25T20:09:03.941Z,6.70
2023-04-25T20:11:32.128Z,6.70
2023-04-25T20:14:00.255Z,6.70
2023-04-25T20:16:29.903Z,6.70
2023-04-25T20:18:58.052Z,6.80
2023-04-25T20:21:27.450Z,6.80
2023-04-25T20:23:55.589Z,6.80
2023-04-25T20:26:23.768Z,6.80
2023-04-25T20:28:52.235Z,6.70
2023-04-25T20:31:21.283Z,6.60
2023-04-25T20:33:50.885Z,6.60
2023-04-25T20:36:19.818Z,6.70
2023-04-25T20:38:48.042Z,6.70
2023-04-25T20:41:16.301Z,6.70
2023-04-25T20:43:44.531Z,6.70
2023-04-25T20:46:13.458Z,6.70
2023-04-25T20:48:42.032Z,6.70
2023-04-25T20:51:12.095Z,6.70
2023-04-25T20:53:40.306Z,6.70
2023-04-25T20:56:10.895Z,6.70
2023-04-25T20:58:39.074Z,6.70
2023-04-25T21:01:08.218Z,6.70
2023-04-25T21:03:36.865Z,6.70
2023-04-25T21:06:05.832Z,6.70
2023-04-25T21:08:35.519Z,6.80
2023-04-25T21:11:04.168Z,6.80
2023-04-25T21:13:32.378Z,6.80
2023-04-25T21:16:00.878Z,6.90
2023-04-25T21:18:31.852Z,6.90
2023-04-25T21:21:00.141Z,6.90
2023-04-25T21:23:28.316Z,6.90
2023-04-25T21:25:57.968Z,6.90
2023-04-25T21:28:26.307Z,6.90
2023-04-25T21:30:54.588Z,6.80
2023-04-25T21:33:22.834Z,6.90
2023-04-25T21:35:51.030Z,6.80
2023-04-25T21:38:19.172Z,6.90
2023-04-25T21:40:47.604Z,6.90
2023-04-25T21:43:17.187Z,6.90
2023-04-25T21:48:19.841Z,6.90
2023-04-25T21:50:48.475Z,6.90
2023-04-25T21:53:16.695Z,6.90
2023-04-25T21:55:44.935Z,6.80
2023-04-25T21:58:13.316Z,6.90
2023-04-25T22:00:44.025Z,6.90
2023-04-25T22:03:14.682Z,6.90
2023-04-25T22:05:44.276Z,6.90
2023-04-25T22:08:12.656Z,6.90
2023-04-25T22:10:42.019Z,6.90
2023-04-25T22:13:10.274Z,7.00
2023-04-25T22:15:38.467Z,7.00
2023-04-25T22:18:08.777Z,6.90
2023-04-25T22:20:38.953Z,6.80
2023-04-25T22:23:07.115Z,6.80
2023-04-25T22:25:35.537Z,6.70
2023-04-25T22:28:03.687Z,6.80
2023-04-25T22:30:32.223Z,6.80
2023-04-25T22:33:00.494Z,6.80
2023-04-25T22:35:30.117Z,6.70
2023-04-25T22:37:58.283Z,6.70
2023-04-25T22:40:26.531Z,6.70
2023-04-25T22:42:54.725Z,6.70
2023-04-25T22:45:23.044Z,6.60
2023-04-25T22:47:51.376Z,6.60
2023-04-25T22:50:20.309Z,6.60
2023-04-25T22:52:49.906Z,6.70
2023-04-25T22:55:18.056Z,6.70
2023-04-25T22:57:46.717Z,6.80
2023-04-25T23:00:20.165Z,6.80
2023-04-25T23:02:49.797Z,6.80
2023-04-25T23:05:18.464Z,6.80
2023-04-25T23:07:46.704Z,6.90
2023-04-25T23:10:16.719Z,6.90
2023-04-25T23:12:44.906Z,6.90
2023-04-25T23:15:13.730Z,6.90
2023-04-25T23:17:42.773Z,6.90
2023-04-25T23:20:12.228Z,6.90
2023-04-25T23:22:40.759Z,6.90
2023-04-25T23:25:10.530Z,6.90
2023-04-25T23:27:40.131Z,6.90
2023-04-25T23:30:10.138Z,6.90
2023-04-25T23:32:38.984Z,6.90
2023-04-25T23:35:08.265Z,6.90
2023-04-25T23:37:37.214Z,6.90
2023-04-25T23:40:09.912Z,6.90
2023-04-25T23:42:40.919Z,7.00
2023-04-25T23:45:10.430Z,7.00
2023-04-25T23:47:38.796Z,7.00
2023-04-25T23:50:08.481Z,7.10
2023-04-25T23:52:36.740Z,7.10
2023-04-25T23:55:06.215Z,7.10
2023-04-25T23:57:34.597Z,7.10
